sensor_id;sensor_type;location;lat;lon;timestamp;P1;durP1;ratioP1;P2;durP2;ratioP2
52708;SDS011;38606;52.986;6.980;2023-09-19T00:01:07;7.60;;;1.77;;
52708;SDS011;38606;52.986;6.980;2023-09-19T00:03:34;9.98;;;1.83;;
52708;SDS011;38606;52.986;6.980;2023-09-19T00:06:02;7.72;;;1.80;;
52708;SDS011;38606;52.986;6.980;2023-09-19T00:08:30;4.85;;;1.38;;
52708;SDS011;38606;52.986;6.980;2023-09-19T00:10:56;8.00;;;1.70;;
52708;SDS011;38606;52.986;6.980;2023-09-19T00:13:27;8.93;;;1.75;;
52708;SDS011;38606;52.986;6.980;2023-09-19T00:15:53;6.55;;;1.40;;
52708;SDS011;38606;52.986;6.980;2023-09-19T00:18:20;7.43;;;1.70;;
52708;SDS011;38606;52.986;6.980;2023-09-19T00:20:47;5.80;;;1.50;;
52708;SDS011;38606;52.986;6.980;2023-09-19T00:23:14;5.30;;;1.80;;
52708;SDS011;38606;52.986;6.980;2023-09-19T00:25:40;6.45;;;1.67;;
52708;SDS011;38606;52.986;6.980;2023-09-19T00:28:07;8.65;;;1.85;;
52708;SDS011;38606;52.986;6.980;2023-09-19T00:30:33;6.95;;;1.70;;
52708;SDS011;38606;52.986;6.980;2023-09-19T00:32:59;8.63;;;1.85;;
52708;SDS011;38606;52.986;6.980;2023-09-19T00:35:28;7.90;;;1.58;;
52708;SDS011;38606;52.986;6.980;2023-09-19T00:37:53;6.00;;;1.60;;
52708;SDS011;38606;52.986;6.980;2023-09-19T00:40:20;8.50;;;1.50;;
52708;SDS011;38606;52.986;6.980;2023-09-19T00:42:47;4.90;;;1.70;;
52708;SDS011;38606;52.986;6.980;2023-09-19T00:45:15;10.05;;;1.45;;
52708;SDS011;38606;52.986;6.980;2023-09-19T00:47:44;15.15;;;2.33;;
52708;SDS011;38606;52.986;6.980;2023-09-19T00:50:14;9.55;;;1.80;;
52708;SDS011;38606;52.986;6.980;2023-09-19T00:52:42;6.55;;;1.70;;
52708;SDS011;38606;52.986;6.980;2023-09-19T00:55:09;9.57;;;1.95;;
52708;SDS011;38606;52.986;6.980;2023-09-19T00:57:36;6.97;;;2.00;;
52708;SDS011;38606;52.986;6.980;2023-09-19T01:00:06;9.30;;;1.83;;
52708;SDS011;38606;52.986;6.980;2023-09-19T01:02:36;8.07;;;1.45;;
52708;SDS011;38606;52.986;6.980;2023-09-19T01:05:02;10.98;;;2.78;;
52708;SDS011;38606;52.986;6.980;2023-09-19T01:07:31;10.20;;;2.13;;
52708;SDS011;38606;52.986;6.980;2023-09-19T01:10:03;11.45;;;2.00;;
52708;SDS011;38606;52.986;6.980;2023-09-19T01:12:42;10.32;;;1.80;;
52708;SDS011;38606;52.986;6.980;2023-09-19T01:21:05;11.43;;;1.85;;
52708;SDS011;38606;52.986;6.980;2023-09-19T01:26:23;11.70;;;1.83;;
52708;SDS011;38606;52.986;6.980;2023-09-19T01:29:17;12.50;;;1.80;;
52708;SDS011;38606;52.986;6.980;2023-09-19T01:31:56;11.00;;;2.40;;
52708;SDS011;38606;52.986;6.980;2023-09-19T01:34:42;8.73;;;2.40;;
52708;SDS011;38606;52.986;6.980;2023-09-19T01:37:12;13.73;;;2.00;;
52708;SDS011;38606;52.986;6.980;2023-09-19T01:39:39;9.63;;;1.58;;
52708;SDS011;38606;52.986;6.980;2023-09-19T01:45:03;9.35;;;1.80;;
52708;SDS011;38606;52.986;6.980;2023-09-19T01:47:37;10.70;;;2.10;;
52708;SDS011;38606;52.986;6.980;2023-09-19T01:55:47;11.82;;;1.92;;
52708;SDS011;38606;52.986;6.980;2023-09-19T01:58:20;8.05;;;2.35;;
52708;SDS011;38606;52.986;6.980;2023-09-19T02:00:52;11.15;;;2.30;;
52708;SDS011;38606;52.986;6.980;2023-09-19T02:03:21;8.18;;;1.70;;
52708;SDS011;38606;52.986;6.980;2023-09-19T02:05:51;13.75;;;3.08;;
52708;SDS011;38606;52.986;6.980;2023-09-19T02:08:19;12.73;;;2.47;;
52708;SDS011;38606;52.986;6.980;2023-09-19T02:10:48;12.55;;;2.80;;
52708;SDS011;38606;52.986;6.980;2023-09-19T02:13:15;11.82;;;2.17;;
52708;SDS011;38606;52.986;6.980;2023-09-19T02:15:42;13.20;;;2.20;;
52708;SDS011;38606;52.986;6.980;2023-09-19T02:18:09;11.15;;;2.67;;
52708;SDS011;38606;52.986;6.980;2023-09-19T02:20:39;10.48;;;2.45;;
52708;SDS011;38606;52.986;6.980;2023-09-19T02:23:05;9.50;;;1.80;;
52708;SDS011;38606;52.986;6.980;2023-09-19T02:25:31;12.57;;;2.97;;
52708;SDS011;38606;52.986;6.980;2023-09-19T02:27:57;15.70;;;2.15;;
52708;SDS011;38606;52.986;6.980;2023-09-19T02:30:27;13.70;;;2.92;;
52708;SDS011;38606;52.986;6.980;2023-09-19T02:32:52;10.85;;;2.10;;
52708;SDS011;38606;52.986;6.980;2023-09-19T02:35:18;8.32;;;2.03;;
52708;SDS011;38606;52.986;6.980;2023-09-19T02:37:46;12.85;;;2.13;;
52708;SDS011;38606;52.986;6.980;2023-09-19T02:40:13;11.23;;;2.63;;
52708;SDS011;38606;52.986;6.980;2023-09-19T02:42:48;14.43;;;2.28;;
52708;SDS011;38606;52.986;6.980;2023-09-19T02:45:18;10.23;;;2.38;;
52708;SDS011;38606;52.986;6.980;2023-09-19T02:47:44;12.95;;;2.22;;
52708;SDS011;38606;52.986;6.980;2023-09-19T02:50:13;10.13;;;2.33;;
52708;SDS011;38606;52.986;6.980;2023-09-19T02:52:43;11.20;;;2.17;;
52708;SDS011;38606;52.986;6.980;2023-09-19T02:55:12;13.27;;;3.08;;
52708;SDS011;38606;52.986;6.980;2023-09-19T02:57:39;8.85;;;2.40;;
52708;SDS011;38606;52.986;6.980;2023-09-19T03:00:08;9.85;;;2.42;;
52708;SDS011;38606;52.986;6.980;2023-09-19T03:02:35;7.95;;;2.60;;
52708;SDS011;38606;52.986;6.980;2023-09-19T03:05:02;10.63;;;2.20;;
52708;SDS011;38606;52.986;6.980;2023-09-19T03:07:29;11.90;;;2.67;;
52708;SDS011;38606;52.986;6.980;2023-09-19T03:09:54;10.30;;;2.70;;
52708;SDS011;38606;52.986;6.980;2023-09-19T03:12:20;5.03;;;2.20;;
52708;SDS011;38606;52.986;6.980;2023-09-19T03:14:46;7.75;;;2.13;;
52708;SDS011;38606;52.986;6.980;2023-09-19T03:17:11;17.35;;;2.63;;
52708;SDS011;38606;52.986;6.980;2023-09-19T03:19:39;12.07;;;2.55;;
52708;SDS011;38606;52.986;6.980;2023-09-19T03:22:05;10.63;;;2.38;;
52708;SDS011;38606;52.986;6.980;2023-09-19T03:24:31;13.65;;;2.67;;
52708;SDS011;38606;52.986;6.980;2023-09-19T03:26:59;15.40;;;3.25;;
52708;SDS011;38606;52.986;6.980;2023-09-19T03:29:25;16.75;;;2.83;;
52708;SDS011;38606;52.986;6.980;2023-09-19T03:31:50;14.02;;;2.33;;
52708;SDS011;38606;52.986;6.980;2023-09-19T03:34:16;9.43;;;2.30;;
52708;SDS011;38606;52.986;6.980;2023-09-19T03:36:42;9.90;;;2.22;;
52708;SDS011;38606;52.986;6.980;2023-09-19T03:39:08;8.23;;;1.98;;
52708;SDS011;38606;52.986;6.980;2023-09-19T03:41:34;9.68;;;2.05;;
52708;SDS011;38606;52.986;6.980;2023-09-19T03:44:01;14.05;;;2.47;;
52708;SDS011;38606;52.986;6.980;2023-09-19T03:46:27;10.25;;;2.28;;
52708;SDS011;38606;52.986;6.980;2023-09-19T03:48:53;10.57;;;2.15;;
52708;SDS011;38606;52.986;6.980;2023-09-19T03:51:20;16.58;;;3.47;;
52708;SDS011;38606;52.986;6.980;2023-09-19T03:53:45;13.05;;;2.00;;
52708;SDS011;38606;52.986;6.980;2023-09-19T03:56:11;8.85;;;2.60;;
52708;SDS011;38606;52.986;6.980;2023-09-19T03:58:37;8.88;;;2.50;;
52708;SDS011;38606;52.986;6.980;2023-09-19T04:01:05;11.27;;;2.58;;
52708;SDS011;38606;52.986;6.980;2023-09-19T04:03:32;11.25;;;2.22;;
52708;SDS011;38606;52.986;6.980;2023-09-19T04:06:18;7.57;;;2.22;;
52708;SDS011;38606;52.986;6.980;2023-09-19T04:08:44;10.30;;;2.20;;
52708;SDS011;38606;52.986;6.980;2023-09-19T04:11:10;9.75;;;2.10;;
52708;SDS011;38606;52.986;6.980;2023-09-19T04:13:36;14.00;;;2.35;;
52708;SDS011;38606;52.986;6.980;2023-09-19T04:16:02;11.27;;;2.75;;
52708;SDS011;38606;52.986;6.980;2023-09-19T04:18:32;10.32;;;1.80;;
52708;SDS011;38606;52.986;6.980;2023-09-19T04:21:02;7.30;;;2.10;;
52708;SDS011;38606;52.986;6.980;2023-09-19T04:23:29;8.35;;;2.15;;
52708;SDS011;38606;52.986;6.980;2023-09-19T04:25:55;8.35;;;2.05;;
52708;SDS011;38606;52.986;6.980;2023-09-19T04:28:21;11.75;;;2.10;;
52708;SDS011;38606;52.986;6.980;2023-09-19T04:30:48;9.10;;;2.10;;
52708;SDS011;38606;52.986;6.980;2023-09-19T04:33:13;9.50;;;2.08;;
52708;SDS011;38606;52.986;6.980;2023-09-19T04:35:39;6.18;;;1.80;;
52708;SDS011;38606;52.986;6.980;2023-09-19T04:38:07;10.25;;;2.33;;
52708;SDS011;38606;52.986;6.980;2023-09-19T04:40:33;5.60;;;1.90;;
52708;SDS011;38606;52.986;6.980;2023-09-19T04:42:59;15.82;;;3.20;;
52708;SDS011;38606;52.986;6.980;2023-09-19T04:45:26;9.75;;;2.42;;
52708;SDS011;38606;52.986;6.980;2023-09-19T04:47:52;6.10;;;1.95;;
52708;SDS011;38606;52.986;6.980;2023-09-19T04:50:18;8.77;;;2.17;;
52708;SDS011;38606;52.986;6.980;2023-09-19T04:52:49;9.80;;;2.42;;
52708;SDS011;38606;52.986;6.980;2023-09-19T04:55:16;11.02;;;2.28;;
52708;SDS011;38606;52.986;6.980;2023-09-19T04:57:44;15.18;;;2.15;;
52708;SDS011;38606;52.986;6.980;2023-09-19T05:00:18;13.32;;;2.25;;
52708;SDS011;38606;52.986;6.980;2023-09-19T05:02:52;9.55;;;2.20;;
52708;SDS011;38606;52.986;6.980;2023-09-19T05:05:20;10.25;;;2.70;;
52708;SDS011;38606;52.986;6.980;2023-09-19T05:07:47;11.88;;;2.97;;
52708;SDS011;38606;52.986;6.980;2023-09-19T05:10:13;9.48;;;2.42;;
52708;SDS011;38606;52.986;6.980;2023-09-19T05:12:40;13.63;;;2.13;;
52708;SDS011;38606;52.986;6.980;2023-09-19T05:15:06;14.43;;;2.80;;
52708;SDS011;38606;52.986;6.980;2023-09-19T05:17:35;10.02;;;2.30;;
52708;SDS011;38606;52.986;6.980;2023-09-19T05:20:02;18.40;;;2.78;;
52708;SDS011;38606;52.986;6.980;2023-09-19T05:22:31;13.95;;;2.85;;
52708;SDS011;38606;52.986;6.980;2023-09-19T05:25:00;13.63;;;2.10;;
52708;SDS011;38606;52.986;6.980;2023-09-19T05:27:28;11.82;;;2.28;;
52708;SDS011;38606;52.986;6.980;2023-09-19T05:29:54;13.45;;;2.47;;
52708;SDS011;38606;52.986;6.980;2023-09-19T05:32:20;12.02;;;2.42;;
52708;SDS011;38606;52.986;6.980;2023-09-19T05:34:47;13.73;;;2.40;;
52708;SDS011;38606;52.986;6.980;2023-09-19T05:37:13;17.95;;;2.53;;
52708;SDS011;38606;52.986;6.980;2023-09-19T05:39:41;17.55;;;3.03;;
52708;SDS011;38606;52.986;6.980;2023-09-19T05:42:07;14.68;;;2.28;;
52708;SDS011;38606;52.986;6.980;2023-09-19T05:44:33;12.27;;;3.10;;
52708;SDS011;38606;52.986;6.980;2023-09-19T05:46:59;12.75;;;2.50;;
52708;SDS011;38606;52.986;6.980;2023-09-19T05:49:25;12.35;;;2.67;;
52708;SDS011;38606;52.986;6.980;2023-09-19T05:51:50;12.10;;;2.70;;
52708;SDS011;38606;52.986;6.980;2023-09-19T05:54:19;12.27;;;2.58;;
52708;SDS011;38606;52.986;6.980;2023-09-19T05:56:45;12.75;;;2.30;;
52708;SDS011;38606;52.986;6.980;2023-09-19T05:59:12;11.15;;;2.30;;
52708;SDS011;38606;52.986;6.980;2023-09-19T06:01:42;11.60;;;2.03;;
52708;SDS011;38606;52.986;6.980;2023-09-19T06:04:08;16.23;;;2.58;;
52708;SDS011;38606;52.986;6.980;2023-09-19T06:06:33;13.05;;;2.60;;
52708;SDS011;38606;52.986;6.980;2023-09-19T06:09:08;14.38;;;2.60;;
52708;SDS011;38606;52.986;6.980;2023-09-19T06:11:34;11.48;;;2.30;;
52708;SDS011;38606;52.986;6.980;2023-09-19T06:14:01;15.48;;;3.20;;
52708;SDS011;38606;52.986;6.980;2023-09-19T06:16:30;13.32;;;2.63;;
52708;SDS011;38606;52.986;6.980;2023-09-19T06:18:59;10.52;;;2.53;;
52708;SDS011;38606;52.986;6.980;2023-09-19T06:21:25;10.77;;;2.28;;
52708;SDS011;38606;52.986;6.980;2023-09-19T06:23:54;10.23;;;2.40;;
52708;SDS011;38606;52.986;6.980;2023-09-19T06:26:20;15.45;;;2.40;;
52708;SDS011;38606;52.986;6.980;2023-09-19T06:28:45;13.05;;;2.95;;
52708;SDS011;38606;52.986;6.980;2023-09-19T06:31:11;10.98;;;2.35;;
52708;SDS011;38606;52.986;6.980;2023-09-19T06:33:37;11.65;;;2.20;;
52708;SDS011;38606;52.986;6.980;2023-09-19T06:36:08;13.13;;;2.47;;
52708;SDS011;38606;52.986;6.980;2023-09-19T06:38:34;8.77;;;1.92;;
52708;SDS011;38606;52.986;6.980;2023-09-19T06:41:01;18.77;;;2.40;;
52708;SDS011;38606;52.986;6.980;2023-09-19T06:43:30;14.98;;;2.45;;
52708;SDS011;38606;52.986;6.980;2023-09-19T06:45:59;14.65;;;2.33;;
52708;SDS011;38606;52.986;6.980;2023-09-19T06:48:25;18.05;;;4.20;;
52708;SDS011;38606;52.986;6.980;2023-09-19T06:50:55;14.82;;;2.45;;
52708;SDS011;38606;52.986;6.980;2023-09-19T06:53:23;9.57;;;2.33;;
52708;SDS011;38606;52.986;6.980;2023-09-19T06:55:52;13.52;;;1.90;;
52708;SDS011;38606;52.986;6.980;2023-09-19T06:58:19;14.00;;;2.72;;
52708;SDS011;38606;52.986;6.980;2023-09-19T07:00:45;14.45;;;2.80;;
52708;SDS011;38606;52.986;6.980;2023-09-19T07:03:11;9.60;;;2.42;;
52708;SDS011;38606;52.986;6.980;2023-09-19T07:05:39;16.27;;;2.60;;
52708;SDS011;38606;52.986;6.980;2023-09-19T07:08:06;17.85;;;2.95;;
52708;SDS011;38606;52.986;6.980;2023-09-19T07:10:33;12.05;;;2.45;;
52708;SDS011;38606;52.986;6.980;2023-09-19T07:13:05;11.23;;;2.25;;
52708;SDS011;38606;52.986;6.980;2023-09-19T07:15:35;12.80;;;2.22;;
52708;SDS011;38606;52.986;6.980;2023-09-19T07:18:05;13.48;;;2.75;;
52708;SDS011;38606;52.986;6.980;2023-09-19T07:20:32;15.00;;;3.70;;
52708;SDS011;38606;52.986;6.980;2023-09-19T07:22:59;14.27;;;2.55;;
52708;SDS011;38606;52.986;6.980;2023-09-19T07:25:25;13.73;;;2.40;;
52708;SDS011;38606;52.986;6.980;2023-09-19T07:27:52;13.35;;;2.60;;
52708;SDS011;38606;52.986;6.980;2023-09-19T07:30:20;14.07;;;2.47;;
52708;SDS011;38606;52.986;6.980;2023-09-19T07:32:46;7.28;;;2.00;;
52708;SDS011;38606;52.986;6.980;2023-09-19T07:35:12;12.00;;;2.70;;
52708;SDS011;38606;52.986;6.980;2023-09-19T07:37:40;9.63;;;2.30;;
52708;SDS011;38606;52.986;6.980;2023-09-19T07:40:06;14.27;;;2.22;;
52708;SDS011;38606;52.986;6.980;2023-09-19T07:42:35;10.70;;;2.97;;
52708;SDS011;38606;52.986;6.980;2023-09-19T07:45:04;10.02;;;2.10;;
52708;SDS011;38606;52.986;6.980;2023-09-19T07:47:30;9.88;;;2.20;;
52708;SDS011;38606;52.986;6.980;2023-09-19T07:49:57;17.02;;;2.60;;
52708;SDS011;38606;52.986;6.980;2023-09-19T07:52:24;9.75;;;2.40;;
52708;SDS011;38606;52.986;6.980;2023-09-19T07:54:52;10.32;;;2.38;;
52708;SDS011;38606;52.986;6.980;2023-09-19T07:57:18;11.52;;;2.63;;
52708;SDS011;38606;52.986;6.980;2023-09-19T07:59:45;13.77;;;2.38;;
52708;SDS011;38606;52.986;6.980;2023-09-19T08:02:11;9.95;;;2.00;;
52708;SDS011;38606;52.986;6.980;2023-09-19T08:04:44;12.30;;;2.53;;
52708;SDS011;38606;52.986;6.980;2023-09-19T08:07:14;12.45;;;2.15;;
52708;SDS011;38606;52.986;6.980;2023-09-19T08:09:40;11.02;;;2.40;;
52708;SDS011;38606;52.986;6.980;2023-09-19T08:12:06;9.68;;;1.95;;
52708;SDS011;38606;52.986;6.980;2023-09-19T08:14:35;10.05;;;2.53;;
52708;SDS011;38606;52.986;6.980;2023-09-19T08:17:02;12.80;;;2.33;;
52708;SDS011;38606;52.986;6.980;2023-09-19T08:19:30;13.63;;;2.70;;
52708;SDS011;38606;52.986;6.980;2023-09-19T08:22:00;13.73;;;2.30;;
52708;SDS011;38606;52.986;6.980;2023-09-19T08:24:29;12.05;;;2.25;;
52708;SDS011;38606;52.986;6.980;2023-09-19T08:26:55;12.95;;;2.40;;
52708;SDS011;38606;52.986;6.980;2023-09-19T08:29:23;12.05;;;2.30;;
52708;SDS011;38606;52.986;6.980;2023-09-19T08:31:58;12.43;;;2.70;;
52708;SDS011;38606;52.986;6.980;2023-09-19T08:34:24;11.18;;;2.40;;
52708;SDS011;38606;52.986;6.980;2023-09-19T08:36:51;12.55;;;2.45;;
52708;SDS011;38606;52.986;6.980;2023-09-19T08:39:26;10.13;;;2.47;;
52708;SDS011;38606;52.986;6.980;2023-09-19T08:41:58;11.88;;;2.42;;
52708;SDS011;38606;52.986;6.980;2023-09-19T08:44:25;11.70;;;2.45;;
52708;SDS011;38606;52.986;6.980;2023-09-19T08:46:59;12.43;;;2.40;;
52708;SDS011;38606;52.986;6.980;2023-09-19T08:52:28;16.90;;;2.70;;
52708;SDS011;38606;52.986;6.980;2023-09-19T08:55:02;11.27;;;2.63;;
52708;SDS011;38606;52.986;6.980;2023-09-19T08:57:35;14.57;;;2.42;;
52708;SDS011;38606;52.986;6.980;2023-09-19T09:00:07;8.70;;;2.58;;
52708;SDS011;38606;52.986;6.980;2023-09-19T09:02:39;19.50;;;3.33;;
52708;SDS011;38606;52.986;6.980;2023-09-19T09:05:08;14.73;;;2.40;;
52708;SDS011;38606;52.986;6.980;2023-09-19T09:07:39;12.02;;;2.67;;
52708;SDS011;38606;52.986;6.980;2023-09-19T09:10:06;13.10;;;3.03;;
52708;SDS011;38606;52.986;6.980;2023-09-19T09:12:32;13.48;;;3.10;;
52708;SDS011;38606;52.986;6.980;2023-09-19T09:15:02;12.95;;;2.40;;
52708;SDS011;38606;52.986;6.980;2023-09-19T09:17:29;14.48;;;3.60;;
52708;SDS011;38606;52.986;6.980;2023-09-19T09:19:55;19.85;;;4.30;;
52708;SDS011;38606;52.986;6.980;2023-09-19T09:22:22;11.48;;;2.50;;
52708;SDS011;38606;52.986;6.980;2023-09-19T09:24:52;9.88;;;2.38;;
52708;SDS011;38606;52.986;6.980;2023-09-19T09:27:19;13.68;;;2.60;;
52708;SDS011;38606;52.986;6.980;2023-09-19T09:29:45;12.50;;;2.95;;
52708;SDS011;38606;52.986;6.980;2023-09-19T09:34:51;15.02;;;3.25;;
52708;SDS011;38606;52.986;6.980;2023-09-19T09:37:22;9.65;;;2.15;;
52708;SDS011;38606;52.986;6.980;2023-09-19T09:39:53;14.57;;;2.95;;
52708;SDS011;38606;52.986;6.980;2023-09-19T09:42:31;15.45;;;2.92;;
52708;SDS011;38606;52.986;6.980;2023-09-19T09:47:47;10.93;;;2.67;;
52708;SDS011;38606;52.986;6.980;2023-09-19T09:53:27;15.85;;;2.45;;
52708;SDS011;38606;52.986;6.980;2023-09-19T09:56:00;10.38;;;2.83;;
52708;SDS011;38606;52.986;6.980;2023-09-19T09:58:31;12.50;;;3.17;;
52708;SDS011;38606;52.986;6.980;2023-09-19T10:01:01;9.63;;;3.00;;
52708;SDS011;38606;52.986;6.980;2023-09-19T10:03:37;13.17;;;3.07;;
52708;SDS011;38606;52.986;6.980;2023-09-19T10:06:09;19.05;;;3.97;;
52708;SDS011;38606;52.986;6.980;2023-09-19T10:11:30;12.63;;;2.70;;
52708;SDS011;38606;52.986;6.980;2023-09-19T10:13:57;11.57;;;2.85;;
52708;SDS011;38606;52.986;6.980;2023-09-19T10:16:27;16.92;;;3.45;;
52708;SDS011;38606;52.986;6.980;2023-09-19T10:18:57;10.38;;;2.63;;
52708;SDS011;38606;52.986;6.980;2023-09-19T10:21:27;9.00;;;2.65;;
52708;SDS011;38606;52.986;6.980;2023-09-19T10:23:56;15.02;;;2.67;;
52708;SDS011;38606;52.986;6.980;2023-09-19T10:26:25;11.88;;;2.50;;
52708;SDS011;38606;52.986;6.980;2023-09-19T10:28:56;14.10;;;2.78;;
52708;SDS011;38606;52.986;6.980;2023-09-19T10:31:26;14.95;;;3.03;;
52708;SDS011;38606;52.986;6.980;2023-09-19T10:33:53;15.00;;;3.50;;
52708;SDS011;38606;52.986;6.980;2023-09-19T10:36:22;16.17;;;3.10;;
52708;SDS011;38606;52.986;6.980;2023-09-19T10:38:52;13.23;;;3.03;;
52708;SDS011;38606;52.986;6.980;2023-09-19T10:41:22;14.00;;;2.78;;
52708;SDS011;38606;52.986;6.980;2023-09-19T10:43:49;10.82;;;2.53;;
52708;SDS011;38606;52.986;6.980;2023-09-19T10:46:19;12.27;;;2.67;;
52708;SDS011;38606;52.986;6.980;2023-09-19T10:48:45;14.68;;;2.30;;
52708;SDS011;38606;52.986;6.980;2023-09-19T10:51:18;15.73;;;2.53;;
52708;SDS011;38606;52.986;6.980;2023-09-19T10:56:31;11.27;;;2.75;;
52708;SDS011;38606;52.986;6.980;2023-09-19T10:59:06;10.75;;;2.85;;
52708;SDS011;38606;52.986;6.980;2023-09-19T11:07:08;10.43;;;2.67;;
52708;SDS011;38606;52.986;6.980;2023-09-19T11:09:46;8.25;;;2.10;;
52708;SDS011;38606;52.986;6.980;2023-09-19T11:26:42;13.10;;;2.60;;
52708;SDS011;38606;52.986;6.980;2023-09-19T11:29:28;12.88;;;2.90;;
52708;SDS011;38606;52.986;6.980;2023-09-19T11:31:58;13.43;;;2.75;;
52708;SDS011;38606;52.986;6.980;2023-09-19T11:39:38;13.48;;;2.30;;
52708;SDS011;38606;52.986;6.980;2023-09-19T11:45:06;11.07;;;2.50;;
52708;SDS011;38606;52.986;6.980;2023-09-19T11:47:32;18.00;;;2.20;;
52708;SDS011;38606;52.986;6.980;2023-09-19T11:50:00;17.52;;;2.67;;
52708;SDS011;38606;52.986;6.980;2023-09-19T11:52:27;13.15;;;2.60;;
52708;SDS011;38606;52.986;6.980;2023-09-19T11:55:00;10.98;;;2.35;;
52708;SDS011;38606;52.986;6.980;2023-09-19T11:57:27;10.88;;;2.60;;
52708;SDS011;38606;52.986;6.980;2023-09-19T11:59:55;9.65;;;2.20;;
52708;SDS011;38606;52.986;6.980;2023-09-19T12:02:30;12.77;;;2.50;;
52708;SDS011;38606;52.986;6.980;2023-09-19T12:05:05;9.80;;;2.30;;
52708;SDS011;38606;52.986;6.980;2023-09-19T12:07:31;13.95;;;2.63;;
52708;SDS011;38606;52.986;6.980;2023-09-19T12:10:13;10.63;;;2.15;;
52708;SDS011;38606;52.986;6.980;2023-09-19T12:12:46;9.52;;;1.90;;
52708;SDS011;38606;52.986;6.980;2023-09-19T12:15:22;10.55;;;1.90;;
52708;SDS011;38606;52.986;6.980;2023-09-19T12:17:53;11.57;;;2.58;;
52708;SDS011;38606;52.986;6.980;2023-09-19T12:20:19;11.77;;;2.28;;
52708;SDS011;38606;52.986;6.980;2023-09-19T12:22:46;9.38;;;2.53;;
52708;SDS011;38606;52.986;6.980;2023-09-19T12:25:13;9.05;;;2.60;;
52708;SDS011;38606;52.986;6.980;2023-09-19T12:27:41;11.88;;;2.42;;
52708;SDS011;38606;52.986;6.980;2023-09-19T12:30:18;13.55;;;2.72;;
52708;SDS011;38606;52.986;6.980;2023-09-19T12:32:45;9.23;;;2.00;;
52708;SDS011;38606;52.986;6.980;2023-09-19T12:35:30;8.20;;;1.90;;
52708;SDS011;38606;52.986;6.980;2023-09-19T12:37:59;11.20;;;2.60;;
52708;SDS011;38606;52.986;6.980;2023-09-19T12:40:26;12.45;;;2.20;;
52708;SDS011;38606;52.986;6.980;2023-09-19T12:42:58;10.45;;;2.40;;
52708;SDS011;38606;52.986;6.980;2023-09-19T12:45:24;10.05;;;2.08;;
52708;SDS011;38606;52.986;6.980;2023-09-19T12:56:08;12.57;;;2.17;;
52708;SDS011;38606;52.986;6.980;2023-09-19T12:58:51;11.55;;;1.98;;
52708;SDS011;38606;52.986;6.980;2023-09-19T13:01:21;8.60;;;2.28;;
52708;SDS011;38606;52.986;6.980;2023-09-19T13:06:51;11.13;;;2.13;;
52708;SDS011;38606;52.986;6.980;2023-09-19T13:09:20;10.93;;;2.20;;
52708;SDS011;38606;52.986;6.980;2023-09-19T13:11:47;5.32;;;1.70;;
52708;SDS011;38606;52.986;6.980;2023-09-19T13:14:24;13.27;;;2.40;;
52708;SDS011;38606;52.986;6.980;2023-09-19T13:19:39;9.52;;;2.10;;
52708;SDS011;38606;52.986;6.980;2023-09-19T13:25:19;10.95;;;2.03;;
52708;SDS011;38606;52.986;6.980;2023-09-19T13:27:46;11.63;;;2.00;;
52708;SDS011;38606;52.986;6.980;2023-09-19T13:30:16;11.05;;;2.10;;
52708;SDS011;38606;52.986;6.980;2023-09-19T13:32:42;10.40;;;1.80;;
52708;SDS011;38606;52.986;6.980;2023-09-19T13:35:08;13.52;;;2.20;;
52708;SDS011;38606;52.986;6.980;2023-09-19T13:37:35;9.90;;;2.10;;
52708;SDS011;38606;52.986;6.980;2023-09-19T13:40:06;10.57;;;2.10;;
52708;SDS011;38606;52.986;6.980;2023-09-19T13:42:33;9.18;;;2.25;;
52708;SDS011;38606;52.986;6.980;2023-09-19T13:44:59;12.60;;;2.33;;
52708;SDS011;38606;52.986;6.980;2023-09-19T13:47:25;9.98;;;2.05;;
52708;SDS011;38606;52.986;6.980;2023-09-19T13:49:52;9.13;;;1.95;;
52708;SDS011;38606;52.986;6.980;2023-09-19T13:52:18;9.63;;;2.55;;
52708;SDS011;38606;52.986;6.980;2023-09-19T13:54:45;8.88;;;2.00;;
52708;SDS011;38606;52.986;6.980;2023-09-19T13:57:10;8.98;;;2.03;;
52708;SDS011;38606;52.986;6.980;2023-09-19T13:59:36;10.18;;;1.75;;
52708;SDS011;38606;52.986;6.980;2023-09-19T14:02:02;4.63;;;1.67;;
52708;SDS011;38606;52.986;6.980;2023-09-19T14:04:28;7.35;;;1.77;;
52708;SDS011;38606;52.986;6.980;2023-09-19T14:06:56;10.93;;;2.08;;
52708;SDS011;38606;52.986;6.980;2023-09-19T14:09:23;12.48;;;2.10;;
52708;SDS011;38606;52.986;6.980;2023-09-19T14:11:50;13.20;;;1.83;;
52708;SDS011;38606;52.986;6.980;2023-09-19T14:14:20;12.63;;;2.00;;
52708;SDS011;38606;52.986;6.980;2023-09-19T14:16:49;8.68;;;1.55;;
52708;SDS011;38606;52.986;6.980;2023-09-19T14:19:16;13.23;;;2.17;;
52708;SDS011;38606;52.986;6.980;2023-09-19T14:21:41;8.63;;;1.95;;
52708;SDS011;38606;52.986;6.980;2023-09-19T14:24:08;7.25;;;2.13;;
52708;SDS011;38606;52.986;6.980;2023-09-19T14:26:35;9.63;;;1.92;;
52708;SDS011;38606;52.986;6.980;2023-09-19T14:29:01;8.95;;;1.60;;
52708;SDS011;38606;52.986;6.980;2023-09-19T14:31:27;6.45;;;1.45;;
52708;SDS011;38606;52.986;6.980;2023-09-19T14:33:56;9.55;;;1.65;;
52708;SDS011;38606;52.986;6.980;2023-09-19T14:36:22;5.22;;;1.42;;
52708;SDS011;38606;52.986;6.980;2023-09-19T14:38:52;6.63;;;1.60;;
52708;SDS011;38606;52.986;6.980;2023-09-19T14:41:22;10.43;;;1.70;;
52708;SDS011;38606;52.986;6.980;2023-09-19T14:43:50;10.02;;;1.67;;
52708;SDS011;38606;52.986;6.980;2023-09-19T14:46:16;7.30;;;1.58;;
52708;SDS011;38606;52.986;6.980;2023-09-19T14:48:43;8.25;;;1.60;;
52708;SDS011;38606;52.986;6.980;2023-09-19T14:51:12;9.05;;;1.77;;
52708;SDS011;38606;52.986;6.980;2023-09-19T14:53:38;7.22;;;1.50;;
52708;SDS011;38606;52.986;6.980;2023-09-19T14:56:08;2.65;;;1.17;;
52708;SDS011;38606;52.986;6.980;2023-09-19T14:58:34;11.95;;;2.53;;
52708;SDS011;38606;52.986;6.980;2023-09-19T15:01:04;7.35;;;1.48;;
52708;SDS011;38606;52.986;6.980;2023-09-19T15:03:35;7.88;;;1.42;;
52708;SDS011;38606;52.986;6.980;2023-09-19T15:06:02;8.23;;;1.50;;
52708;SDS011;38606;52.986;6.980;2023-09-19T15:08:30;6.20;;;1.17;;
52708;SDS011;38606;52.986;6.980;2023-09-19T15:10:56;7.95;;;1.65;;
52708;SDS011;38606;52.986;6.980;2023-09-19T15:13:23;8.48;;;1.38;;
52708;SDS011;38606;52.986;6.980;2023-09-19T15:15:58;5.60;;;1.77;;
52708;SDS011;38606;52.986;6.980;2023-09-19T15:18:28;9.38;;;1.10;;
52708;SDS011;38606;52.986;6.980;2023-09-19T15:21:02;5.50;;;1.58;;
52708;SDS011;38606;52.986;6.980;2023-09-19T15:23:35;4.78;;;1.38;;
52708;SDS011;38606;52.986;6.980;2023-09-19T15:26:02;5.30;;;0.95;;
52708;SDS011;38606;52.986;6.980;2023-09-19T15:28:29;5.70;;;1.70;;
52708;SDS011;38606;52.986;6.980;2023-09-19T15:31:02;4.45;;;1.30;;
52708;SDS011;38606;52.986;6.980;2023-09-19T15:33:32;4.70;;;1.25;;
52708;SDS011;38606;52.986;6.980;2023-09-19T15:36:05;5.72;;;1.42;;
52708;SDS011;38606;52.986;6.980;2023-09-19T15:38:32;6.68;;;1.35;;
52708;SDS011;38606;52.986;6.980;2023-09-19T15:41:29;6.70;;;1.45;;
52708;SDS011;38606;52.986;6.980;2023-09-19T15:43:57;7.97;;;1.30;;
52708;SDS011;38606;52.986;6.980;2023-09-19T15:46:26;3.40;;;1.23;;
52708;SDS011;38606;52.986;6.980;2023-09-19T15:48:55;8.13;;;1.50;;
52708;SDS011;38606;52.986;6.980;2023-09-19T15:51:22;7.00;;;1.20;;
52708;SDS011;38606;52.986;6.980;2023-09-19T15:53:48;9.65;;;1.48;;
52708;SDS011;38606;52.986;6.980;2023-09-19T15:56:15;3.95;;;1.30;;
52708;SDS011;38606;52.986;6.980;2023-09-19T15:58:45;3.60;;;0.90;;
52708;SDS011;38606;52.986;6.980;2023-09-19T16:01:12;5.88;;;1.50;;
52708;SDS011;38606;52.986;6.980;2023-09-19T16:03:39;7.53;;;1.58;;
52708;SDS011;38606;52.986;6.980;2023-09-19T16:06:12;7.43;;;1.45;;